createdAt,value
2019-06-10T00:01:51.377Z,5.75
2019-06-10T00:05:57.655Z,6.00
2019-06-10T00:10:04.502Z,6.12
2019-06-10T00:14:10.724Z,4.85
2019-06-10T00:18:34.106Z,5.35
2019-06-10T00:22:22.328Z,8.85
2019-06-10T00:26:27.284Z,7.85
2019-06-10T00:30:32.160Z,6.30
2019-06-10T00:34:37.328Z,5.75
2019-06-10T00:38:42.210Z,6.95
2019-06-10T00:42:47.093Z,7.92
2019-06-10T00:46:52.105Z,8.20
2019-06-10T00:50:57.975Z,6.28
2019-06-10T00:55:04.592Z,6.20
2019-06-10T00:59:12.749Z,5.87
2019-06-10T01:03:16.179Z,6.08
2019-06-10T01:07:21.875Z,6.50
2019-06-10T01:11:27.753Z,5.72
2019-06-10T01:15:32.809Z,6.55
2019-06-10T01:19:38.001Z,9.80
2019-06-10T01:23:43.050Z,7.10
2019-06-10T01:27:47.990Z,10.05
2019-06-10T01:31:52.800Z,10.58
2019-06-10T01:35:57.789Z,9.65
2019-06-10T01:40:02.643Z,9.88
2019-06-10T01:44:08.449Z,9.73
2019-06-10T01:48:15.272Z,10.10
2019-06-10T01:52:21.183Z,9.38
2019-06-10T01:56:26.677Z,7.17
2019-06-10T02:00:50.640Z,12.07
2019-06-10T02:04:55.493Z,6.90
2019-06-10T02:09:06.388Z,9.33
2019-06-10T02:13:31.983Z,7.17
2019-06-10T02:17:35.982Z,9.05
2019-06-10T02:21:41.688Z,6.67
2019-06-10T02:25:47.312Z,9.63
2019-06-10T02:29:52.145Z,8.80
2019-06-10T02:33:58.212Z,6.90
2019-06-10T02:38:03.617Z,10.50
2019-06-10T02:42:30.143Z,9.15
2019-06-10T02:46:31.266Z,6.27
2019-06-10T02:50:59.850Z,7.42
2019-06-10T02:55:05.958Z,8.73
2019-06-10T02:59:13.223Z,12.40
2019-06-10T03:03:25.696Z,12.00
2019-06-10T03:07:28.632Z,12.63
2019-06-10T03:11:33.468Z,9.33
2019-06-10T03:15:39.674Z,11.10
2019-06-10T03:19:50.369Z,13.98
2019-06-10T03:23:53.128Z,9.13
2019-06-10T03:27:57.881Z,9.75
2019-06-10T03:32:04.967Z,8.80
2019-06-10T03:36:11.995Z,8.08
2019-06-10T03:40:16.711Z,12.35
2019-06-10T03:44:24.820Z,11.15
2019-06-10T03:48:28.438Z,8.03
2019-06-10T03:52:33.414Z,13.98
2019-06-10T03:56:38.288Z,9.33
2019-06-10T04:00:43.207Z,10.38
2019-06-10T04:04:48.315Z,14.13
2019-06-10T04:08:53.142Z,10.80
2019-06-10T04:12:57.960Z,8.30
2019-06-10T04:17:04.044Z,8.05
2019-06-10T04:21:08.923Z,10.35
2019-06-10T04:25:14.249Z,10.43
2019-06-10T04:29:20.013Z,9.30
2019-06-10T04:33:27.653Z,9.53
2019-06-10T04:37:33.104Z,7.80
2019-06-10T04:41:38.251Z,10.50
2019-06-10T04:45:43.908Z,7.12
2019-06-10T04:49:48.634Z,8.13
2019-06-10T04:53:53.800Z,9.30
2019-06-10T04:57:58.655Z,9.95
2019-06-10T05:02:05.601Z,8.13
2019-06-10T05:06:12.243Z,6.65
2019-06-10T05:10:17.008Z,11.03
2019-06-10T05:14:23.986Z,11.43
2019-06-10T05:18:29.078Z,11.57
2019-06-10T05:22:35.136Z,12.40
2019-06-10T05:26:42.610Z,10.28
2019-06-10T05:30:46.881Z,8.85
2019-06-10T05:34:52.804Z,7.58
2019-06-10T05:38:57.972Z,8.13
2019-06-10T05:43:02.713Z,10.15
2019-06-10T05:47:07.690Z,8.55
2019-06-10T05:51:12.617Z,11.65
2019-06-10T05:55:17.481Z,8.75
2019-06-10T05:59:24.323Z,11.88
2019-06-10T06:03:29.937Z,10.18
2019-06-10T06:07:35.731Z,10.80
2019-06-10T06:11:42.830Z,11.15
2019-06-10T06:15:48.516Z,8.93
2019-06-10T06:19:53.540Z,10.00
2019-06-10T06:23:58.809Z,11.48
2019-06-10T06:28:03.680Z,11.65
2019-06-10T06:32:08.568Z,11.75
2019-06-10T06:36:13.937Z,12.55
2019-06-10T06:40:19.000Z,15.10
2019-06-10T06:44:24.004Z,12.47
2019-06-10T06:48:29.951Z,9.93
2019-06-10T06:53:12.607Z,10.63
2019-06-10T06:56:43.744Z,9.68
2019-06-10T07:01:01.346Z,13.05
2019-06-10T07:04:56.153Z,8.65
2019-06-10T07:09:07.734Z,11.73
2019-06-10T07:13:12.759Z,12.55
2019-06-10T07:17:17.199Z,10.82
2019-06-10T07:21:22.801Z,8.73
2019-06-10T07:25:28.992Z,9.70
2019-06-10T07:29:36.759Z,8.15
2019-06-10T07:33:43.042Z,9.38
2019-06-10T07:37:47.046Z,11.35
2019-06-10T07:41:52.915Z,9.93
2019-06-10T07:45:58.026Z,8.65
2019-06-10T07:50:03.117Z,8.58
2019-06-10T07:54:08.248Z,9.75
2019-06-10T07:58:13.089Z,12.90
2019-06-10T08:02:17.950Z,13.93
2019-06-10T08:06:23.268Z,12.15
2019-06-10T08:10:28.066Z,16.02
2019-06-10T08:14:33.149Z,14.30
2019-06-10T08:18:49.187Z,10.38
2019-06-10T08:22:54.288Z,10.98
2019-06-10T08:26:53.101Z,10.05
2019-06-10T08:30:58.094Z,10.60
2019-06-10T08:35:03.496Z,10.75
2019-06-10T08:39:12.195Z,10.15
2019-06-10T08:43:15.743Z,10.45
2019-06-10T08:47:22.832Z,8.75
2019-06-10T08:51:27.263Z,8.55
2019-06-10T08:55:33.450Z,10.80
2019-06-10T08:59:40.003Z,8.55
2019-06-10T09:03:49.398Z,7.10
2019-06-10T09:08:02.585Z,7.53
2019-06-10T09:12:07.073Z,8.93
2019-06-10T09:16:18.867Z,7.28
2019-06-10T09:20:22.787Z,7.58
2019-06-10T09:24:26.601Z,10.98
2019-06-10T09:28:32.935Z,8.53
2019-06-10T09:32:37.964Z,7.90
2019-06-10T09:36:47.618Z,8.88
2019-06-10T09:40:59.826Z,10.95
2019-06-10T09:44:58.432Z,9.40
2019-06-10T09:49:05.154Z,8.43
2019-06-10T09:53:12.579Z,8.15
2019-06-10T09:57:16.928Z,10.93
2019-06-10T10:01:24.536Z,9.13
2019-06-10T10:05:28.591Z,8.85
2019-06-10T10:09:36.977Z,11.05
2019-06-10T10:13:44.123Z,11.78
2019-06-10T10:17:49.140Z,13.08
2019-06-10T10:21:58.152Z,11.80
2019-06-10T10:26:03.187Z,10.48
2019-06-10T10:30:08.017Z,9.28
2019-06-10T10:34:13.437Z,8.35
2019-06-10T10:38:18.757Z,10.65
2019-06-10T10:42:23.759Z,10.18
2019-06-10T10:46:28.667Z,12.53
2019-06-10T10:50:34.176Z,13.43
2019-06-10T10:54:39.551Z,7.90
2019-06-10T10:58:46.985Z,10.13
2019-06-10T11:02:51.481Z,9.58
2019-06-10T11:07:00.918Z,10.15
2019-06-10T11:11:05.918Z,12.37
2019-06-10T11:15:13.790Z,7.97
2019-06-10T11:19:18.841Z,8.98
2019-06-10T11:23:23.664Z,11.90
2019-06-10T11:27:28.728Z,8.25
2019-06-10T11:31:33.606Z,13.20
2019-06-10T11:35:38.852Z,26.25
2019-06-10T11:39:44.014Z,25.35
2019-06-10T11:43:48.949Z,26.85
2019-06-10T11:47:55.495Z,38.30
2019-06-10T11:52:00.423Z,23.70
2019-06-10T11:56:05.886Z,23.45
2019-06-10T12:00:16.623Z,13.28
2019-06-10T12:04:18.761Z,14.53
2019-06-10T12:08:23.918Z,17.30
2019-06-10T12:12:29.113Z,12.43
2019-06-10T12:20:42.653Z,11.93
2019-06-10T12:24:50.316Z,11.28
2019-06-10T12:28:58.697Z,15.72
2019-06-10T12:33:05.348Z,14.13
2019-06-10T12:37:12.933Z,13.68
2019-06-10T12:41:15.588Z,10.13
2019-06-10T12:45:23.361Z,10.53
2019-06-10T12:49:28.503Z,9.40
2019-06-10T12:53:34.508Z,11.75
2019-06-10T12:57:39.440Z,12.18
2019-06-10T13:01:45.055Z,11.60
2019-06-10T13:05:53.361Z,13.65
2019-06-10T13:09:59.673Z,10.00
2019-06-10T13:14:06.687Z,11.65
2019-06-10T13:18:18.997Z,9.33
2019-06-10T13:22:18.473Z,9.50
2019-06-10T13:26:23.550Z,10.60
2019-06-10T13:30:28.375Z,13.72
2019-06-10T13:34:33.406Z,10.10
2019-06-10T13:38:38.280Z,10.45
2019-06-10T13:42:43.324Z,9.48
2019-06-10T13:46:48.324Z,12.33
2019-06-10T13:50:53.541Z,7.60
2019-06-10T13:54:58.720Z,10.35
2019-06-10T13:59:05.453Z,10.63
2019-06-10T14:03:15.819Z,9.70
2019-06-10T14:07:17.641Z,10.58
2019-06-10T14:11:27.929Z,14.33
2019-06-10T14:15:29.851Z,7.45
2019-06-10T14:19:35.389Z,10.60
2019-06-10T14:23:42.377Z,10.68
2019-06-10T14:27:47.005Z,9.70
2019-06-10T14:31:53.252Z,9.08
2019-06-10T14:35:59.296Z,8.00
2019-06-10T14:40:07.022Z,11.55
2019-06-10T14:44:16.134Z,10.45
2019-06-10T14:48:18.668Z,12.25
2019-06-10T14:52:23.628Z,13.50
2019-06-10T14:56:28.760Z,22.90
2019-06-10T15:00:33.613Z,19.25
2019-06-10T15:04:38.663Z,11.20
2019-06-10T15:08:44.565Z,9.45
2019-06-10T15:12:49.336Z,11.88
2019-06-10T15:16:54.207Z,17.37
2019-06-10T15:20:59.071Z,7.95
2019-06-10T15:25:04.762Z,14.78
2019-06-10T15:29:09.597Z,14.10
2019-06-10T15:33:16.552Z,14.10
2019-06-10T15:37:23.869Z,8.55
2019-06-10T15:41:28.644Z,11.18
2019-06-10T15:45:33.617Z,10.15
2019-06-10T15:49:38.812Z,12.95
2019-06-10T15:53:44.121Z,5.15
2019-06-10T15:57:48.841Z,5.03
2019-06-10T16:01:53.725Z,4.70
2019-06-10T16:05:58.748Z,2.15
2019-06-10T16:10:04.132Z,1.82
2019-06-10T16:14:10.428Z,2.83
2019-06-10T16:18:16.799Z,6.65
2019-06-10T16:22:24.907Z,6.95
2019-06-10T16:26:30.800Z,9.33
2019-06-10T16:30:35.785Z,12.07
2019-06-10T16:34:41.053Z,12.80
2019-06-10T16:38:45.856Z,16.12
2019-06-10T16:42:53.219Z,13.20
2019-06-10T16:46:57.245Z,16.23
2019-06-10T16:51:03.328Z,13.98
2019-06-10T16:55:09.316Z,16.52
2019-06-10T16:59:14.210Z,14.33
2019-06-10T17:03:22.768Z,13.88
2019-06-10T17:07:26.917Z,10.93
2019-06-10T17:11:32.304Z,9.70
2019-06-10T17:15:37.328Z,11.75
2019-06-10T17:19:42.114Z,14.40
2019-06-10T17:23:46.969Z,11.85
2019-06-10T17:27:52.679Z,11.88
2019-06-10T17:31:57.960Z,14.65
2019-06-10T17:36:03.507Z,14.35
2019-06-10T17:40:09.976Z,12.78
2019-06-10T17:44:15.647Z,10.30
2019-06-10T17:48:23.742Z,12.43
2019-06-10T17:52:28.138Z,9.45
2019-06-10T17:56:36.029Z,8.53
2019-06-10T18:00:42.063Z,8.70
2019-06-10T18:04:47.206Z,11.00
2019-06-10T18:08:52.679Z,11.10
2019-06-10T18:13:10.176Z,10.15
2019-06-10T18:17:04.389Z,9.80
2019-06-10T18:21:09.218Z,12.73
2019-06-10T18:25:14.576Z,9.30
2019-06-10T18:29:19.602Z,7.58
2019-06-10T18:33:27.695Z,7.20
2019-06-10T18:37:34.870Z,8.68
2019-06-10T18:41:41.947Z,7.25
2019-06-10T18:45:49.506Z,6.15
2019-06-10T18:49:55.453Z,8.20
2019-06-10T18:54:01.841Z,10.53
2019-06-10T18:58:07.954Z,9.63
2019-06-10T19:02:13.021Z,10.25
2019-06-10T19:06:18.128Z,8.18
2019-06-10T19:10:23.242Z,8.28
2019-06-10T19:14:32.412Z,6.78
2019-06-10T19:18:38.125Z,8.15
2019-06-10T19:22:44.550Z,8.98
2019-06-10T19:26:52.598Z,8.40
2019-06-10T19:30:58.048Z,8.83
2019-06-10T19:35:07.022Z,9.63
2019-06-10T19:39:13.178Z,10.38
2019-06-10T19:43:18.276Z,7.65
2019-06-10T19:47:23.597Z,7.45
2019-06-10T19:51:29.208Z,10.32
2019-06-10T19:55:35.180Z,7.17
2019-06-10T19:59:58.442Z,7.97
2019-06-10T20:03:48.068Z,11.03
2019-06-10T20:07:53.369Z,8.25
2019-06-10T20:11:58.677Z,12.65
2019-06-10T20:16:04.081Z,14.18
2019-06-10T20:20:09.361Z,9.25
2019-06-10T20:24:15.227Z,8.80
2019-06-10T20:28:22.217Z,8.73
2019-06-10T20:32:26.479Z,8.38
2019-06-10T20:36:33.476Z,6.78
2019-06-10T20:40:38.361Z,12.43
2019-06-10T20:44:45.884Z,8.85
2019-06-10T20:48:51.943Z,10.58
2019-06-10T20:53:10.925Z,13.90
2019-06-10T20:57:04.239Z,9.40
2019-06-10T21:01:09.264Z,6.35
2019-06-10T21:05:14.628Z,11.95
2019-06-10T21:09:22.351Z,6.60
2019-06-10T21:13:27.598Z,7.75
2019-06-10T21:17:34.124Z,7.58
2019-06-10T21:21:40.371Z,9.38
2019-06-10T21:25:50.738Z,9.00
2019-06-10T21:29:55.306Z,9.63
2019-06-10T21:34:02.850Z,10.70
2019-06-10T21:38:07.966Z,10.35
2019-06-10T21:42:13.216Z,8.58
2019-06-10T21:46:18.548Z,11.35
2019-06-10T21:50:23.956Z,11.10
2019-06-10T21:54:29.436Z,9.88
2019-06-10T21:58:35.362Z,11.25
2019-06-10T22:02:42.769Z,10.53
2019-06-10T22:06:47.576Z,10.32
2019-06-10T22:10:55.003Z,10.98
2019-06-10T22:14:59.436Z,11.57
2019-06-10T22:19:04.331Z,11.40
2019-06-10T22:23:09.259Z,10.80
2019-06-10T22:27:14.159Z,9.85
2019-06-10T22:31:22.992Z,12.63
2019-06-10T22:35:25.348Z,10.40
2019-06-10T22:39:32.444Z,10.30
2019-06-10T22:43:36.567Z,11.95
2019-06-10T22:47:42.651Z,12.47
2019-06-10T22:51:48.248Z,11.55
2019-06-10T22:55:54.956Z,10.30
2019-06-10T23:00:02.865Z,13.60
2019-06-10T23:04:06.704Z,11.85
2019-06-10T23:08:12.663Z,12.53
2019-06-10T23:12:18.400Z,10.82
2019-06-10T23:16:23.380Z,13.72
2019-06-10T23:20:28.197Z,12.23
2019-06-10T23:24:33.060Z,14.78
2019-06-10T23:28:37.956Z,17.42
2019-06-10T23:32:42.682Z,17.15
2019-06-10T23:36:47.644Z,17.17
2019-06-10T23:40:52.746Z,14.98
2019-06-10T23:44:59.205Z,17.20
2019-06-10T23:49:04.746Z,18.40
2019-06-10T23:53:12.892Z,15.35
2019-06-10T23:57:16.397Z,18.20
